createdAt,value
2018-11-07T00:01:08.239Z,8.3
2018-11-07T00:04:08.363Z,8.3
2018-11-07T00:07:08.817Z,8.3
2018-11-07T00:10:08.392Z,8.3
2018-11-07T00:13:08.158Z,8.3
2018-11-07T00:16:08.649Z,8.3
2018-11-07T00:19:08.614Z,8.3
2018-11-07T00:22:08.220Z,8.3
2018-11-07T00:25:08.456Z,8.3
2018-11-07T00:28:08.399Z,8.3
2018-11-07T00:31:08.613Z,8.3
2018-11-07T00:34:08.173Z,8.3
2018-11-07T00:37:08.289Z,8.3
2018-11-07T00:40:08.328Z,8.3
2018-11-07T00:43:08.438Z,8.3
2018-11-07T00:46:08.266Z,8.3
2018-11-07T00:49:08.817Z,8.3
2018-11-07T00:52:08.923Z,8.3
2018-11-07T00:55:08.158Z,8.3
2018-11-07T00:58:10.266Z,8.3
2018-11-07T01:01:08.298Z,8.3
2018-11-07T01:04:08.324Z,8.3
2018-11-07T01:07:08.403Z,8.3
2018-11-07T01:10:08.255Z,8.3
2018-11-07T01:13:08.300Z,8.3
2018-11-07T01:16:08.408Z,8.3
2018-11-07T01:19:08.448Z,8.3
2018-11-07T01:22:08.497Z,8.3
2018-11-07T01:25:08.669Z,8.3
2018-11-07T01:28:09.076Z,8.3
2018-11-07T01:31:08.183Z,8.3
2018-11-07T01:34:08.329Z,8.3
2018-11-07T01:37:08.351Z,8.3
2018-11-07T01:40:08.156Z,8.3
2018-11-07T01:43:08.656Z,8.3
2018-11-07T01:46:08.405Z,8.3
2018-11-07T01:49:08.342Z,8.3
2018-11-07T01:52:08.261Z,8.3
2018-11-07T01:55:08.344Z,8.3
2018-11-07T01:58:08.747Z,8.3
2018-11-07T02:01:08.326Z,8.4
2018-11-07T02:04:08.799Z,8.4
2018-11-07T02:07:08.420Z,8.4
2018-11-07T02:10:08.802Z,8.4
2018-11-07T02:13:08.281Z,8.4
2018-11-07T02:16:08.534Z,8.4
2018-11-07T02:19:08.369Z,8.4
2018-11-07T02:22:08.238Z,8.4
2018-11-07T02:25:08.297Z,8.4
2018-11-07T02:28:08.261Z,8.4
2018-11-07T02:31:08.374Z,8.4
2018-11-07T02:34:08.240Z,8.4
2018-11-07T02:37:10.683Z,8.4
2018-11-07T02:40:08.412Z,8.4
2018-11-07T02:43:08.183Z,8.4
2018-11-07T02:46:08.623Z,8.4
2018-11-07T02:49:08.254Z,8.4
2018-11-07T02:52:08.454Z,8.4
2018-11-07T02:55:08.240Z,8.4
2018-11-07T02:58:08.259Z,8.4
2018-11-07T03:01:09.958Z,8.5
2018-11-07T03:04:08.212Z,8.5
2018-11-07T03:07:08.697Z,8.5
2018-11-07T03:10:10.562Z,8.5
2018-11-07T03:13:08.288Z,8.5
2018-11-07T03:16:08.189Z,8.5
2018-11-07T03:19:08.226Z,8.5
2018-11-07T03:22:08.270Z,8.5
2018-11-07T03:25:08.324Z,8.5
2018-11-07T03:28:08.120Z,8.5
2018-11-07T03:31:08.317Z,8.5
2018-11-07T03:34:08.462Z,8.5
2018-11-07T03:37:08.128Z,8.5
2018-11-07T03:40:08.177Z,8.5
2018-11-07T03:43:08.549Z,8.5
2018-11-07T03:46:08.226Z,8.5
2018-11-07T03:49:08.251Z,8.5
2018-11-07T03:52:08.369Z,8.5
2018-11-07T03:55:08.294Z,8.5
2018-11-07T03:58:08.595Z,8.5
2018-11-07T04:01:08.305Z,8.5
2018-11-07T04:04:08.497Z,8.5
2018-11-07T04:07:08.046Z,8.5
2018-11-07T04:10:08.151Z,8.5
2018-11-07T04:13:08.380Z,8.5
2018-11-07T04:16:08.335Z,8.5
2018-11-07T04:19:08.202Z,8.5
2018-11-07T04:22:08.259Z,8.5
2018-11-07T04:25:08.261Z,8.5
2018-11-07T04:28:08.053Z,8.5
2018-11-07T04:31:08.250Z,8.5
2018-11-07T04:34:08.288Z,8.5
2018-11-07T04:37:09.430Z,8.5
2018-11-07T04:40:08.192Z,8.5
2018-11-07T04:43:08.273Z,8.5
2018-11-07T04:46:08.068Z,8.5
2018-11-07T04:49:08.331Z,8.5
2018-11-07T04:52:08.385Z,8.5
2018-11-07T04:55:08.253Z,8.5
2018-11-07T04:58:08.380Z,8.5
2018-11-07T05:01:08.326Z,8.6
2018-11-07T05:04:08.526Z,8.6
2018-11-07T05:07:08.342Z,8.6
2018-11-07T05:10:08.134Z,8.6
2018-11-07T05:13:08.189Z,8.6
2018-11-07T05:16:08.048Z,8.6
2018-11-07T05:19:08.159Z,8.6
2018-11-07T05:22:08.381Z,8.6
2018-11-07T05:25:08.540Z,8.6
2018-11-07T05:28:08.064Z,8.6
2018-11-07T05:31:08.413Z,8.6
2018-11-07T05:34:08.209Z,8.6
2018-11-07T05:37:08.285Z,8.6
2018-11-07T05:40:08.145Z,8.6
2018-11-07T05:43:08.113Z,8.6
2018-11-07T05:46:08.253Z,8.6
2018-11-07T05:49:09.853Z,8.6
2018-11-07T05:52:08.051Z,8.6
2018-11-07T05:55:08.315Z,8.6
2018-11-07T05:58:08.222Z,8.6
2018-11-07T06:01:08.262Z,8.6
2018-11-07T06:04:08.468Z,8.6
2018-11-07T06:07:08.547Z,8.6
2018-11-07T06:10:08.505Z,8.6
2018-11-07T06:13:07.975Z,8.6
2018-11-07T06:16:10.039Z,8.6
2018-11-07T06:19:08.214Z,8.6
2018-11-07T06:22:08.186Z,8.6
2018-11-07T06:25:08.401Z,8.6
2018-11-07T06:28:08.521Z,8.6
2018-11-07T06:31:08.255Z,8.6
2018-11-07T06:34:10.481Z,8.6
2018-11-07T06:37:08.137Z,8.6
2018-11-07T06:40:08.321Z,8.6
2018-11-07T06:43:08.109Z,8.6
2018-11-07T06:46:08.318Z,8.6
2018-11-07T06:49:08.519Z,8.6
2018-11-07T06:52:08.275Z,8.6
2018-11-07T06:55:08.957Z,8.6
2018-11-07T06:58:08.270Z,8.6
2018-11-07T07:01:08.501Z,8.6
2018-11-07T07:04:08.442Z,8.6
2018-11-07T07:07:08.137Z,8.6
2018-11-07T07:10:08.282Z,8.6
2018-11-07T07:13:08.312Z,8.6
2018-11-07T07:16:08.131Z,8.6
2018-11-07T07:19:08.132Z,8.6
2018-11-07T07:22:08.225Z,8.6
2018-11-07T07:25:08.141Z,8.6
2018-11-07T07:28:08.094Z,8.6
2018-11-07T07:31:08.256Z,8.6
2018-11-07T07:34:08.251Z,8.6
2018-11-07T07:37:08.031Z,8.6
2018-11-07T07:40:08.254Z,8.6
2018-11-07T07:43:08.567Z,8.6
2018-11-07T07:46:08.397Z,8.6
2018-11-07T07:49:09.476Z,8.6
2018-11-07T07:52:08.533Z,8.6
2018-11-07T07:55:08.305Z,8.6
2018-11-07T07:58:08.037Z,8.6
2018-11-07T08:01:08.109Z,8.6
2018-11-07T08:04:08.367Z,8.6
2018-11-07T08:07:09.850Z,8.6
2018-11-07T08:10:08.084Z,8.6
2018-11-07T08:13:08.164Z,8.6
2018-11-07T08:16:08.355Z,8.6
2018-11-07T08:19:08.234Z,8.6
2018-11-07T08:22:08.410Z,8.6
2018-11-07T08:25:08.180Z,8.6
2018-11-07T08:28:08.365Z,8.6
2018-11-07T08:31:08.103Z,8.6
2018-11-07T08:34:08.114Z,8.6
2018-11-07T08:37:08.553Z,8.6
2018-11-07T08:40:08.133Z,8.6
2018-11-07T08:43:08.223Z,8.6
2018-11-07T08:46:08.321Z,8.6
2018-11-07T08:49:08.088Z,8.6
2018-11-07T08:52:08.203Z,8.6
2018-11-07T08:55:10.956Z,8.6
2018-11-07T08:58:08.182Z,8.6
2018-11-07T09:01:08.857Z,8.8
2018-11-07T09:04:08.093Z,8.8
2018-11-07T09:07:08.205Z,8.8
2018-11-07T09:10:08.063Z,8.8
2018-11-07T09:13:08.197Z,8.8
2018-11-07T09:16:08.181Z,8.8
2018-11-07T09:19:08.107Z,8.8
2018-11-07T09:22:08.531Z,8.8
2018-11-07T09:25:08.222Z,8.8
2018-11-07T09:28:08.447Z,8.8
2018-11-07T09:31:07.985Z,8.8
2018-11-07T09:34:08.081Z,8.8
2018-11-07T09:37:08.445Z,8.8
2018-11-07T09:40:07.960Z,8.8
2018-11-07T09:43:08.151Z,8.8
2018-11-07T09:46:08.497Z,8.8
2018-11-07T09:49:07.956Z,8.8
2018-11-07T09:52:07.981Z,8.8
2018-11-07T09:55:08.509Z,8.8
2018-11-07T09:58:08.433Z,8.8
2018-11-07T10:01:08.012Z,9
2018-11-07T10:04:08.075Z,9
2018-11-07T10:07:08.107Z,9
2018-11-07T10:10:09.228Z,9
2018-11-07T10:13:08.303Z,9
2018-11-07T10:16:08.786Z,9
2018-11-07T10:19:07.893Z,9
2018-11-07T10:22:08.067Z,9
2018-11-07T10:25:08.158Z,9
2018-11-07T10:28:14.057Z,9
2018-11-07T10:31:08.286Z,9
2018-11-07T10:34:07.965Z,9
2018-11-07T10:37:08.085Z,9
2018-11-07T10:40:08.730Z,9
2018-11-07T10:43:08.290Z,9
2018-11-07T10:46:10.092Z,9
2018-11-07T10:49:07.975Z,9
2018-11-07T10:52:08.208Z,9
2018-11-07T10:55:09.273Z,9
2018-11-07T10:58:08.436Z,9
2018-11-07T11:01:08.293Z,8.9
2018-11-07T11:04:08.345Z,8.9
2018-11-07T11:07:07.896Z,8.9
2018-11-07T11:10:07.976Z,8.9
2018-11-07T11:13:08.360Z,8.9
2018-11-07T11:16:08.331Z,8.9
2018-11-07T11:19:07.967Z,8.9
2018-11-07T11:22:08.069Z,8.9
2018-11-07T11:25:08.010Z,8.9
2018-11-07T11:28:08.032Z,8.9
2018-11-07T11:31:07.908Z,8.9
2018-11-07T11:34:11.555Z,8.9
2018-11-07T11:37:08.387Z,8.9
2018-11-07T11:40:08.089Z,8.9
2018-11-07T11:43:07.958Z,8.9
2018-11-07T11:46:07.979Z,8.9
2018-11-07T11:49:09.546Z,8.9
2018-11-07T11:52:08.504Z,8.9
2018-11-07T11:55:08.012Z,8.9
2018-11-07T11:58:08.014Z,8.9
2018-11-07T12:01:08.052Z,8.7
2018-11-07T12:04:08.274Z,8.7
2018-11-07T12:07:07.951Z,8.7
2018-11-07T12:10:08.048Z,8.7
2018-11-07T12:13:09.613Z,8.7
2018-11-07T12:16:08.495Z,8.7
2018-11-07T12:19:07.926Z,8.7
2018-11-07T12:22:07.948Z,8.7
2018-11-07T12:25:08.213Z,8.7
2018-11-07T12:28:08.186Z,8.7
2018-11-07T12:31:07.984Z,8.7
2018-11-07T12:34:07.997Z,8.7
2018-11-07T12:37:08.133Z,8.7
2018-11-07T12:40:08.110Z,8.7
2018-11-07T12:43:08.079Z,8.7
2018-11-07T12:46:08.291Z,8.7
2018-11-07T12:49:08.023Z,8.7
2018-11-07T12:52:08.373Z,8.7
2018-11-07T12:55:07.912Z,8.7
2018-11-07T12:58:12.140Z,8.7
2018-11-07T13:01:08.108Z,8.4
2018-11-07T13:04:08.130Z,8.4
2018-11-07T13:07:08.014Z,8.4
2018-11-07T13:10:08.047Z,8.4
2018-11-07T13:13:08.323Z,8.4
2018-11-07T13:16:07.824Z,8.4
2018-11-07T13:19:08.315Z,8.4
2018-11-07T13:22:08.879Z,8.4
2018-11-07T13:25:08.257Z,8.4
2018-11-07T13:28:09.659Z,8.4
2018-11-07T13:31:07.952Z,8.4
2018-11-07T13:34:08.626Z,8.4
2018-11-07T13:37:12.056Z,8.4
2018-11-07T13:40:08.062Z,8.4
2018-11-07T13:43:07.822Z,8.4
2018-11-07T13:46:10.321Z,8.4
2018-11-07T13:49:08.456Z,8.4
2018-11-07T13:52:08.072Z,8.4
2018-11-07T13:55:08.535Z,8.4
2018-11-07T13:58:07.993Z,8.4
2018-11-07T14:01:08.199Z,8.1
2018-11-07T14:04:08.279Z,8.1
2018-11-07T14:07:08.023Z,8.1
2018-11-07T14:10:08.131Z,8.1
2018-11-07T14:13:08.157Z,8.1
2018-11-07T14:16:11.275Z,8.1
2018-11-07T14:19:08.144Z,8.1
2018-11-07T14:22:08.183Z,8.1
2018-11-07T14:25:08.119Z,8.1
2018-11-07T14:28:12.066Z,8.1
2018-11-07T14:31:07.989Z,8.1
2018-11-07T14:34:09.033Z,8.1
2018-11-07T14:37:08.114Z,8.1
2018-11-07T14:40:08.385Z,8.1
2018-11-07T14:43:08.255Z,8.1
2018-11-07T14:46:09.719Z,8.1
2018-11-07T14:49:08.300Z,8.1
2018-11-07T14:52:08.131Z,8.1
2018-11-07T14:55:07.972Z,8.1
2018-11-07T14:58:07.936Z,8.1
2018-11-07T15:01:08.441Z,7.9
2018-11-07T15:04:07.827Z,7.9
2018-11-07T15:07:07.838Z,7.9
2018-11-07T15:10:08.249Z,7.9
2018-11-07T15:13:07.975Z,7.9
2018-11-07T15:16:08.106Z,7.9
2018-11-07T15:19:07.914Z,7.9
2018-11-07T15:22:08.078Z,7.9
2018-11-07T15:25:10.638Z,7.9
2018-11-07T15:28:08.260Z,7.9
2018-11-07T15:31:07.882Z,7.9
2018-11-07T15:34:08.306Z,7.9
2018-11-07T15:37:08.189Z,7.9
2018-11-07T15:40:07.867Z,7.9
2018-11-07T15:43:08.519Z,7.9
2018-11-07T15:46:08.214Z,7.9
2018-11-07T15:49:08.213Z,7.9
2018-11-07T15:52:08.337Z,7.9
2018-11-07T15:55:07.948Z,7.9
2018-11-07T15:58:08.317Z,7.9
2018-11-07T16:01:09.136Z,7.5
2018-11-07T16:04:08.253Z,7.5
2018-11-07T16:07:07.998Z,7.5
2018-11-07T16:10:08.931Z,7.5
2018-11-07T16:13:09.245Z,7.5
2018-11-07T16:16:08.119Z,7.5
2018-11-07T16:19:08.104Z,7.5
2018-11-07T16:22:08.050Z,7.5
2018-11-07T16:25:07.852Z,7.5
2018-11-07T16:28:08.029Z,7.5
2018-11-07T16:31:07.991Z,7.5
2018-11-07T16:34:08.105Z,7.5
2018-11-07T16:37:07.847Z,7.5
2018-11-07T16:40:08.044Z,7.5
2018-11-07T16:43:07.981Z,7.5
2018-11-07T16:46:07.814Z,7.5
2018-11-07T16:49:07.831Z,7.5
2018-11-07T16:52:07.879Z,7.5
2018-11-07T16:55:07.939Z,7.5
2018-11-07T16:58:07.988Z,7.5
2018-11-07T17:01:07.813Z,7.3
2018-11-07T17:04:07.879Z,7.3
2018-11-07T17:07:09.413Z,7.3
2018-11-07T17:10:08.210Z,7.3
2018-11-07T17:13:08.050Z,7.3
2018-11-07T17:16:08.096Z,7.3
2018-11-07T17:19:07.981Z,7.3
2018-11-07T17:22:07.920Z,7.3
2018-11-07T17:25:08.051Z,7.3
2018-11-07T17:28:07.849Z,7.3
2018-11-07T17:31:07.864Z,7.3
2018-11-07T17:34:08.057Z,7.3
2018-11-07T17:37:09.029Z,7.3
2018-11-07T17:40:07.771Z,7.3
2018-11-07T17:43:08.270Z,7.3
2018-11-07T17:46:08.163Z,7.3
2018-11-07T17:49:08.019Z,7.3
2018-11-07T17:52:07.862Z,7.3
2018-11-07T17:55:08.031Z,7.3
2018-11-07T17:58:08.216Z,7.3
2018-11-07T18:01:07.920Z,7
2018-11-07T18:04:07.986Z,7
2018-11-07T18:07:08.153Z,7
2018-11-07T18:10:09.402Z,7
2018-11-07T18:13:07.835Z,7
2018-11-07T18:16:08.107Z,7
2018-11-07T18:19:09.005Z,7
2018-11-07T18:22:08.002Z,7
2018-11-07T18:25:07.773Z,7
2018-11-07T18:28:07.792Z,7
2018-11-07T18:31:07.912Z,7
2018-11-07T18:34:07.921Z,7
2018-11-07T18:37:07.876Z,7
2018-11-07T18:40:07.755Z,7
2018-11-07T18:43:10.449Z,7
2018-11-07T18:46:08.266Z,7
2018-11-07T18:49:07.884Z,7
2018-11-07T18:52:07.955Z,7
2018-11-07T18:55:07.894Z,7
2018-11-07T18:58:08.000Z,7
2018-11-07T19:01:07.906Z,6.7
2018-11-07T19:04:08.107Z,6.7
2018-11-07T19:07:08.085Z,6.7
2018-11-07T19:10:08.144Z,6.7
2018-11-07T19:13:08.311Z,6.7
2018-11-07T19:16:07.936Z,6.7
2018-11-07T19:19:08.094Z,6.7
2018-11-07T19:22:07.785Z,6.7
2018-11-07T19:25:08.182Z,6.7
2018-11-07T19:28:08.156Z,6.7
2018-11-07T19:31:08.131Z,6.7
2018-11-07T19:34:08.112Z,6.7
2018-11-07T19:37:08.103Z,6.7
2018-11-07T19:40:09.308Z,6.7
2018-11-07T19:43:07.894Z,6.7
2018-11-07T19:46:07.791Z,6.7
2018-11-07T19:49:07.895Z,6.7
2018-11-07T19:52:07.831Z,6.7
2018-11-07T19:55:09.854Z,6.7
2018-11-07T19:58:08.101Z,6.7
2018-11-07T20:01:07.750Z,6.5
2018-11-07T20:04:07.904Z,6.5
2018-11-07T20:07:07.872Z,6.5
2018-11-07T20:10:08.611Z,6.5
2018-11-07T20:13:08.184Z,6.5
2018-11-07T20:16:07.787Z,6.5
2018-11-07T20:19:07.951Z,6.5
2018-11-07T20:22:08.148Z,6.5
2018-11-07T20:25:07.700Z,6.5
2018-11-07T20:28:07.904Z,6.5
2018-11-07T20:31:08.294Z,6.5
2018-11-07T20:34:08.025Z,6.5
2018-11-07T20:37:08.176Z,6.5
2018-11-07T20:40:08.599Z,6.5
2018-11-07T20:43:08.140Z,6.5
2018-11-07T20:46:07.957Z,6.5
2018-11-07T20:49:07.830Z,6.5
2018-11-07T20:52:09.348Z,6.5
2018-11-07T20:55:08.288Z,6.5
2018-11-07T20:58:07.759Z,6.5
2018-11-07T21:01:07.835Z,6.4
2018-11-07T21:04:08.734Z,6.4
2018-11-07T21:07:08.012Z,6.4
2018-11-07T21:10:07.951Z,6.4
2018-11-07T21:13:08.345Z,6.4
2018-11-07T21:16:07.885Z,6.4
2018-11-07T21:19:07.689Z,6.4
2018-11-07T21:22:07.960Z,6.4
2018-11-07T21:25:08.002Z,6.4
2018-11-07T21:28:07.681Z,6.4
2018-11-07T21:31:10.512Z,6.4
2018-11-07T21:34:08.017Z,6.4
2018-11-07T21:37:07.854Z,6.4
2018-11-07T21:40:07.847Z,6.4
2018-11-07T21:43:08.300Z,6.4
2018-11-07T21:46:07.861Z,6.4
2018-11-07T21:49:07.959Z,6.4
2018-11-07T21:52:07.894Z,6.4
2018-11-07T21:55:08.015Z,6.4
2018-11-07T21:58:07.764Z,6.4
2018-11-07T22:01:07.905Z,6.3
2018-11-07T22:04:07.826Z,6.3
2018-11-07T22:07:07.863Z,6.3
2018-11-07T22:10:08.311Z,6.3
2018-11-07T22:13:09.399Z,6.3
2018-11-07T22:16:07.974Z,6.3
2018-11-07T22:19:07.750Z,6.3
2018-11-07T22:22:07.972Z,6.3
2018-11-07T22:25:07.894Z,6.3
2018-11-07T22:28:07.945Z,6.3
2018-11-07T22:31:07.956Z,6.3
2018-11-07T22:34:07.841Z,6.3
2018-11-07T22:37:07.840Z,6.3
2018-11-07T22:40:08.000Z,6.3
2018-11-07T22:43:07.668Z,6.3
2018-11-07T22:46:08.159Z,6.3
2018-11-07T22:49:09.990Z,6.3
2018-11-07T22:52:08.059Z,6.3
2018-11-07T22:55:08.114Z,6.3
2018-11-07T22:58:07.893Z,6.3
2018-11-07T23:01:07.695Z,6.2
2018-11-07T23:04:07.814Z,6.2
2018-11-07T23:07:07.791Z,6.2
2018-11-07T23:10:07.840Z,6.2
2018-11-07T23:13:07.732Z,6.2
2018-11-07T23:16:07.799Z,6.2
2018-11-07T23:19:09.409Z,6.2
2018-11-07T23:22:07.780Z,6.2
2018-11-07T23:25:07.760Z,6.2
2018-11-07T23:28:07.782Z,6.2
2018-11-07T23:31:07.987Z,6.2
2018-11-07T23:34:07.983Z,6.2
2018-11-07T23:37:08.028Z,6.2
2018-11-07T23:40:08.521Z,6.2
2018-11-07T23:43:08.132Z,6.2
2018-11-07T23:46:07.823Z,6.2
2018-11-07T23:49:07.922Z,6.2
2018-11-07T23:52:08.099Z,6.2
2018-11-07T23:55:08.145Z,6.2
2018-11-07T23:58:08.094Z,6.2
